createdAt,value
2018-12-09T00:00:39.526Z,63.26
2018-12-09T00:04:45.788Z,63.36
2018-12-09T00:08:51.984Z,63.74
2018-12-09T00:12:56.258Z,64.03
2018-12-09T00:17:00.653Z,64.13
2018-12-09T00:21:06.297Z,64.58
2018-12-09T00:25:10.297Z,64.75
2018-12-09T00:29:14.379Z,64.12
2018-12-09T00:33:18.511Z,64.29
2018-12-09T00:37:22.547Z,64.43
2018-12-09T00:41:26.526Z,64.19
2018-12-09T00:45:30.531Z,63.63
2018-12-09T00:49:34.654Z,62.94
2018-12-09T00:53:38.631Z,62.16
2018-12-09T00:57:42.615Z,61.56
2018-12-09T01:01:46.747Z,61.26
2018-12-09T01:05:50.858Z,61.07
2018-12-09T01:09:54.870Z,60.85
2018-12-09T01:13:58.814Z,60.01
2018-12-09T01:18:03.090Z,60.14
2018-12-09T01:22:07.071Z,59.97
2018-12-09T01:26:11.013Z,58.75
2018-12-09T01:30:15.531Z,59.49
2018-12-09T01:34:19.522Z,59.22
2018-12-09T01:38:23.447Z,58.86
2018-12-09T01:42:27.483Z,58.86
2018-12-09T01:46:31.499Z,58.71
2018-12-09T01:50:35.470Z,59.01
2018-12-09T01:54:39.943Z,60.03
2018-12-09T01:58:45.172Z,59.36
2018-12-09T02:02:49.203Z,59.46
2018-12-09T02:06:53.267Z,59.76
2018-12-09T02:10:57.250Z,59.33
2018-12-09T02:15:01.204Z,59.22
2018-12-09T02:19:25.179Z,58.28
2018-12-09T02:23:29.286Z,58.57
2018-12-09T02:27:33.332Z,60.13
2018-12-09T02:31:37.544Z,60.04
2018-12-09T02:35:46.386Z,60.47
2018-12-09T02:39:51.337Z,60.93
2018-12-09T02:43:55.413Z,61.00
2018-12-09T02:47:59.583Z,61.89
2018-12-09T02:52:03.739Z,63.99
2018-12-09T02:56:14.420Z,64.75
2018-12-09T03:00:18.472Z,65.28
2018-12-09T03:04:22.460Z,65.48
2018-12-09T03:08:26.782Z,66.42
2018-12-09T03:12:30.848Z,68.69
2018-12-09T03:16:34.737Z,67.24
2018-12-09T03:20:38.726Z,68.54
2018-12-09T03:24:42.778Z,67.64
2018-12-09T03:28:46.785Z,69.34
2018-12-09T03:32:50.817Z,70.45
2018-12-09T03:36:54.804Z,70.26
2018-12-09T03:40:58.944Z,71.17
2018-12-09T03:45:03.447Z,70.72
2018-12-09T03:49:07.575Z,69.53
2018-12-09T03:53:12.663Z,69.71
2018-12-09T03:57:16.672Z,70.18
2018-12-09T04:01:20.647Z,71.25
2018-12-09T04:05:24.602Z,71.22
2018-12-09T04:09:28.522Z,70.91
2018-12-09T04:13:32.539Z,70.74
2018-12-09T04:17:36.560Z,71.20
2018-12-09T04:21:40.603Z,71.72
2018-12-09T04:25:44.779Z,71.24
2018-12-09T04:29:49.075Z,71.53
2018-12-09T04:33:53.102Z,70.46
2018-12-09T04:37:57.125Z,69.96
2018-12-09T04:42:01.121Z,72.28
2018-12-09T04:46:05.147Z,72.68
2018-12-09T04:50:09.266Z,73.00
2018-12-09T04:54:13.187Z,73.04
2018-12-09T04:58:17.137Z,72.74
2018-12-09T05:02:21.083Z,71.66
2018-12-09T05:06:25.058Z,68.82
2018-12-09T05:10:29.276Z,67.34
2018-12-09T05:14:33.518Z,69.19
2018-12-09T05:18:37.525Z,69.96
2018-12-09T05:22:41.590Z,69.82
2018-12-09T05:26:45.675Z,71.14
2018-12-09T05:30:49.733Z,71.44
2018-12-09T05:34:53.728Z,70.33
2018-12-09T05:38:59.623Z,69.85
2018-12-09T05:43:09.211Z,70.51
2018-12-09T05:47:13.331Z,70.10
2018-12-09T05:51:17.398Z,70.58
2018-12-09T05:55:21.405Z,70.74
2018-12-09T05:59:25.432Z,70.56
2018-12-09T06:03:29.425Z,70.79
2018-12-09T06:07:33.343Z,69.99
2018-12-09T06:11:37.407Z,69.94
2018-12-09T06:15:41.358Z,69.61
2018-12-09T06:19:45.367Z,67.94
2018-12-09T06:23:49.463Z,68.78
2018-12-09T06:27:53.506Z,67.33
2018-12-09T06:31:57.503Z,66.89
2018-12-09T06:36:01.475Z,67.24
2018-12-09T06:40:06.111Z,67.33
2018-12-09T06:44:10.516Z,67.46
2018-12-09T06:48:15.015Z,66.83
2018-12-09T06:52:19.035Z,66.31
2018-12-09T06:56:23.078Z,65.01
2018-12-09T07:00:27.271Z,64.71
2018-12-09T07:04:31.239Z,64.20
2018-12-09T07:08:35.342Z,64.33
2018-12-09T07:12:39.399Z,64.58
2018-12-09T07:16:43.390Z,64.35
2018-12-09T07:20:47.411Z,63.58
2018-12-09T07:24:51.453Z,63.44
2018-12-09T07:28:55.421Z,62.04
2018-12-09T07:32:59.466Z,62.67
2018-12-09T07:37:03.964Z,62.90
2018-12-09T07:41:07.941Z,63.22
2018-12-09T07:45:12.003Z,63.71
2018-12-09T07:49:15.951Z,63.58
2018-12-09T07:53:20.039Z,63.93
2018-12-09T07:57:24.115Z,64.15
2018-12-09T08:01:28.205Z,63.35
2018-12-09T08:05:32.183Z,63.58
2018-12-09T08:09:36.273Z,63.06
2018-12-09T08:13:40.290Z,62.46
2018-12-09T08:17:44.367Z,63.08
2018-12-09T08:21:48.411Z,62.87
2018-12-09T08:25:52.527Z,63.46
2018-12-09T08:29:56.511Z,63.62
2018-12-09T08:34:00.521Z,62.94
2018-12-09T08:38:04.475Z,61.72
2018-12-09T08:42:08.643Z,61.57
2018-12-09T08:46:12.633Z,61.72
2018-12-09T08:50:16.602Z,61.76
2018-12-09T08:54:20.543Z,61.58
2018-12-09T08:58:24.562Z,61.66
2018-12-09T09:02:28.692Z,62.46
2018-12-09T09:06:32.852Z,62.21
2018-12-09T09:10:36.923Z,63.21
2018-12-09T09:14:40.847Z,62.97
2018-12-09T09:18:44.939Z,63.50
2018-12-09T09:22:49.058Z,63.86
2018-12-09T09:26:53.074Z,64.04
2018-12-09T09:30:57.062Z,64.49
2018-12-09T09:35:01.091Z,65.70
2018-12-09T09:39:06.622Z,65.95
2018-12-09T09:43:10.679Z,66.34
2018-12-09T09:47:14.759Z,66.71
2018-12-09T09:51:18.701Z,66.55
2018-12-09T09:55:22.727Z,66.91
2018-12-09T09:59:26.978Z,66.35
2018-12-09T10:03:31.148Z,66.75
2018-12-09T10:07:35.108Z,66.43
2018-12-09T10:11:40.131Z,66.60
2018-12-09T10:15:45.272Z,66.51
2018-12-09T10:19:49.194Z,66.88
2018-12-09T10:23:53.281Z,66.08
2018-12-09T10:27:57.235Z,66.28
2018-12-09T10:32:01.525Z,65.68
2018-12-09T10:36:05.496Z,66.04
2018-12-09T10:40:09.654Z,65.97
2018-12-09T10:44:14.696Z,65.97
2018-12-09T10:48:18.702Z,66.14
2018-12-09T10:52:22.774Z,66.02
2018-12-09T10:56:26.838Z,65.15
2018-12-09T11:00:36.163Z,65.54
2018-12-09T11:04:40.141Z,65.03
2018-12-09T11:08:44.205Z,64.45
2018-12-09T11:12:48.963Z,64.50
2018-12-09T11:16:53.221Z,64.28
2018-12-09T11:20:58.263Z,64.75
2018-12-09T11:25:02.271Z,65.15
2018-12-09T11:29:06.303Z,65.28
2018-12-09T11:33:10.343Z,65.72
2018-12-09T11:37:14.369Z,64.51
2018-12-09T11:41:18.352Z,63.75
2018-12-09T11:45:22.412Z,63.09
2018-12-09T11:49:26.423Z,63.69
2018-12-09T11:53:30.386Z,63.93
2018-12-09T11:57:41.752Z,64.22
2018-12-09T12:01:45.757Z,64.92
2018-12-09T12:05:49.777Z,64.75
2018-12-09T12:09:53.723Z,65.13
2018-12-09T12:13:57.776Z,64.84
2018-12-09T12:18:03.048Z,64.47
2018-12-09T12:22:07.005Z,64.25
2018-12-09T12:26:12.493Z,63.87
2018-12-09T12:30:16.627Z,66.05
2018-12-09T12:34:20.724Z,69.49
2018-12-09T12:38:24.798Z,69.39
2018-12-09T12:42:29.078Z,69.69
2018-12-09T12:46:33.237Z,70.03
2018-12-09T12:50:37.454Z,70.41
2018-12-09T12:54:42.202Z,70.89
2018-12-09T12:58:46.311Z,71.21
2018-12-09T13:02:50.332Z,71.03
2018-12-09T13:06:54.243Z,71.62
2018-12-09T13:10:58.255Z,71.56
2018-12-09T13:15:02.740Z,71.05
2018-12-09T13:19:07.165Z,70.42
2018-12-09T13:23:11.178Z,70.78
2018-12-09T13:27:15.208Z,70.54
2018-12-09T13:31:20.024Z,70.94
2018-12-09T13:35:24.238Z,71.08
2018-12-09T13:39:28.345Z,70.45
2018-12-09T13:43:32.355Z,70.28
2018-12-09T13:47:36.403Z,70.68
2018-12-09T13:51:40.470Z,70.52
2018-12-09T13:55:44.419Z,69.92
2018-12-09T13:59:48.448Z,69.58
2018-12-09T14:03:52.700Z,69.72
2018-12-09T14:07:56.828Z,69.55
2018-12-09T14:12:01.711Z,69.80
2018-12-09T14:16:05.686Z,69.16
2018-12-09T14:20:10.421Z,69.48
2018-12-09T14:24:14.419Z,69.61
2018-12-09T14:28:18.491Z,69.78
2018-12-09T14:32:22.451Z,69.10
2018-12-09T14:36:26.387Z,69.01
2018-12-09T14:40:30.344Z,69.24
2018-12-09T14:44:34.333Z,68.96
2018-12-09T14:48:38.355Z,68.59
2018-12-09T14:52:42.359Z,68.06
2018-12-09T14:56:46.395Z,68.29
2018-12-09T15:00:50.444Z,68.24
2018-12-09T15:04:54.487Z,67.95
2018-12-09T15:08:59.799Z,67.85
2018-12-09T15:13:03.843Z,67.49
2018-12-09T15:17:07.977Z,67.98
2018-12-09T15:21:12.054Z,68.08
2018-12-09T15:25:16.141Z,67.19
2018-12-09T15:29:20.166Z,66.30
2018-12-09T15:33:24.159Z,66.76
2018-12-09T15:37:28.240Z,65.37
2018-12-09T15:41:32.207Z,65.46
2018-12-09T15:45:36.367Z,64.87
2018-12-09T15:50:43.215Z,64.36
2018-12-09T15:54:47.362Z,65.62
2018-12-09T15:58:51.478Z,65.27
2018-12-09T16:02:55.474Z,64.94
2018-12-09T16:06:59.739Z,65.45
2018-12-09T16:11:03.764Z,65.51
2018-12-09T16:15:07.837Z,64.70
2018-12-09T16:19:11.880Z,65.34
2018-12-09T16:23:15.959Z,65.58
2018-12-09T16:27:19.932Z,65.02
2018-12-09T16:31:23.983Z,64.49
2018-12-09T16:35:28.066Z,64.63
2018-12-09T16:39:32.230Z,65.23
2018-12-09T16:43:36.208Z,64.90
2018-12-09T16:47:40.371Z,64.60
2018-12-09T16:51:44.390Z,65.82
2018-12-09T16:55:48.355Z,65.69
2018-12-09T16:59:52.431Z,65.29
2018-12-09T17:03:56.678Z,65.65
2018-12-09T17:08:00.787Z,65.30
2018-12-09T17:12:04.952Z,65.25
2018-12-09T17:16:08.900Z,65.85
2018-12-09T17:20:13.994Z,66.28
2018-12-09T17:24:17.962Z,66.76
2018-12-09T17:28:22.025Z,66.71
2018-12-09T17:32:26.060Z,67.67
2018-12-09T17:36:30.216Z,67.73
2018-12-09T17:40:34.198Z,67.98
2018-12-09T17:44:38.359Z,68.18
2018-12-09T17:48:42.354Z,69.23
2018-12-09T17:52:46.495Z,69.33
2018-12-09T17:56:50.587Z,70.04
2018-12-09T18:00:55.890Z,70.08
2018-12-09T18:05:00.900Z,67.48
2018-12-09T18:09:06.368Z,69.37
2018-12-09T18:13:10.401Z,66.10
2018-12-09T18:17:14.369Z,67.28
2018-12-09T18:21:18.505Z,69.23
2018-12-09T18:25:22.535Z,69.75
2018-12-09T18:29:27.582Z,69.85
2018-12-09T18:33:54.295Z,70.09
2018-12-09T18:38:00.649Z,70.00
2018-12-09T18:42:04.614Z,70.29
2018-12-09T18:46:09.795Z,70.62
2018-12-09T18:50:13.904Z,71.21
2018-12-09T18:54:17.805Z,71.26
2018-12-09T18:58:21.792Z,71.14
2018-12-09T19:02:25.775Z,70.91
2018-12-09T19:06:30.031Z,69.77
2018-12-09T19:10:34.107Z,68.91
2018-12-09T19:14:38.018Z,68.10
2018-12-09T19:18:42.072Z,67.84
2018-12-09T19:22:46.073Z,67.39
2018-12-09T19:26:50.153Z,67.88
2018-12-09T19:30:54.347Z,68.09
2018-12-09T19:34:58.433Z,68.59
2018-12-09T19:39:03.959Z,67.86
2018-12-09T19:43:08.295Z,68.11
2018-12-09T19:47:12.395Z,68.69
2018-12-09T19:51:19.551Z,69.18
2018-12-09T19:55:31.254Z,70.65
2018-12-09T19:59:35.426Z,70.69
2018-12-09T20:03:45.927Z,70.60
2018-12-09T20:07:51.179Z,70.33
2018-12-09T20:12:20.092Z,71.04
2018-12-09T20:21:04.109Z,70.80
2018-12-09T20:25:11.865Z,71.23
2018-12-09T20:29:15.856Z,70.64
2018-12-09T20:33:19.901Z,70.25
2018-12-09T20:37:39.985Z,69.31
2018-12-09T20:41:46.477Z,69.11
2018-12-09T20:45:50.945Z,68.55
2018-12-09T20:49:54.914Z,68.72
2018-12-09T20:53:58.960Z,69.75
2018-12-09T20:58:02.962Z,68.09
2018-12-09T21:02:08.015Z,68.99
2018-12-09T21:06:12.250Z,69.65
2018-12-09T21:10:16.171Z,69.83
2018-12-09T21:14:34.961Z,70.40
2018-12-09T21:18:49.415Z,70.64
2018-12-09T21:22:54.380Z,69.94
2018-12-09T21:26:58.475Z,69.98
2018-12-09T21:35:39.236Z,69.88
2018-12-09T21:53:27.157Z,68.11
2018-12-09T22:02:44.117Z,68.40
2018-12-09T22:11:51.745Z,69.18
2018-12-09T22:16:19.473Z,69.70
2018-12-09T22:34:44.684Z,70.22
2018-12-09T22:39:05.380Z,70.97
2018-12-09T23:20:45.392Z,69.69
2018-12-09T23:24:49.423Z,69.06
2018-12-09T23:28:53.632Z,68.92
2018-12-09T23:32:57.703Z,69.01
2018-12-09T23:37:01.731Z,66.66
2018-12-09T23:41:06.569Z,67.16
2018-12-09T23:45:11.113Z,67.49
2018-12-09T23:49:15.129Z,68.18
2018-12-09T23:53:19.171Z,68.62
2018-12-09T23:57:23.166Z,68.81
